Latest Weather Observations for Williamson

IDQ60801

Issued at 5:32 pm EST Sunday 19 April 2015 (issued every 30 minutes, with the page automatically refreshed every 10 minutes)

About weather observations | Map of weather stations | Latest weather observations for QLD | Other Formats
Station Details ID: 033195 Name: WILLIAMSON Lat: -22.47 Lon: 150.18 Height: 27.6 m
Data from the previous 72 hours. | See also: Recent months at Williamson
Date/Time
EST
Temp
°C
App
Temp
°C
Dew
Point
Rel
Hum
%
Delta-T
°C
Wind Press
QNH
hPa
Press
MSL
hPa
Rain
since 9 am
mm
Dir
 
Spd
km/h
Gust
km/h
Spd
kts
Gust
kts
19/05:30pm 26.0 27.0 18.7 64 4.7 E 11 19 6 10 1015.8 1015.7 0.0
19/05:00pm 26.6 28.5 19.7 66 4.5 E 9 15 5 8 1015.6 1015.5 0.0
19/04:30pm 27.1 28.3 19.9 64 4.7 NE 13 22 7 12 1015.1 1015.0 0.0
19/04:00pm 27.3 29.0 20.1 64 4.7 NNE 11 19 6 10 1015.2 1015.1 0.0
19/03:30pm 27.7 29.0 19.2 60 5.5 NE 11 20 6 11 1015.3 1015.2 0.0
19/03:00pm 27.8 28.6 19.1 59 5.6 NNE 13 24 7 13 1015.1 1015.0 0.0
19/02:30pm 28.2 28.4 18.6 56 6.2 NE 15 22 8 12 1015.0 1014.9 0.0
19/02:00pm 30.0 31.5 18.8 51 7.2 N 9 17 5 9 1015.1 1015.0 0.0
19/01:30pm 29.1 29.7 17.6 50 7.3 ENE 11 17 6 9 1015.5 1015.4 0.0
19/01:00pm 29.7 30.1 18.2 50 7.4 ENE 13 20 7 11 1016.0 1015.9 0.0
19/12:30pm 29.0 30.4 17.8 50 7.1 SE 7 13 4 7 1016.6 1016.5 0.0
19/12:00pm 29.0 29.8 18.1 51 7.0 ENE 11 17 6 9 1017.0 1016.9 0.0
19/11:30am 28.6 29.9 17.2 50 7.2 E 6 13 3 7 1017.6 1017.5 0.0
19/11:00am 28.8 29.8 17.7 51 7.0 E 9 15 5 8 1018.1 1018.0 0.0
19/10:30am 29.2 30.0 17.4 49 7.5 ENE 9 20 5 11 1018.5 1018.4 0.0
19/10:00am 28.4 29.0 17.6 52 6.8 ENE 11 17 6 9 1018.7 1018.6 0.0
19/09:30am 28.2 29.3 18.0 54 6.5 E 9 17 5 9 1018.5 1018.4 0.0
19/09:00am 27.4 28.1 18.9 59 5.5 ESE 13 22 7 12 1018.4 1018.3 0.0
19/08:30am 26.6 29.0 20.0 67 4.3 ESE 7 17 4 9 1018.1 1018.0 0.0
19/08:00am 24.2 27.2 20.1 78 2.7 SSW 4 7 2 4 1018.0 1017.9 0.0
19/07:30am 22.2 24.7 19.9 87 1.5 SSW 6 6 3 3 1017.8 1017.7 0.0
19/07:00am 20.5 24.1 19.7 95 0.5 CALM 0 0 0 0 1017.5 1017.4 0.0
19/06:30am 19.8 22.3 19.1 96 0.4 S 4 7 2 4 1017.5 1017.4 0.0
19/06:00am 20.0 23.3 19.2 95 0.5 CALM 0 6 0 3 1017.5 1017.4 0.0
19/05:30am 20.2 22.3 19.0 93 0.8 S 6 7 3 4 1017.1 1017.0 0.0
19/05:00am 21.0 24.3 19.1 89 1.2 CALM 0 0 0 0 1016.6 1016.5 0.0
19/04:30am 22.0 24.6 20.1 89 1.2 ENE 6 9 3 5 1016.4 1016.3 0.0
19/04:00am 22.3 24.9 20.0 87 1.5 E 6 7 3 4 1016.4 1016.3 0.0
19/03:30am 21.3 25.0 19.9 92 0.9 CALM 0 0 0 0 1016.5 1016.4 0.0
19/03:00am 22.1 25.4 20.0 88 1.3 NE 2 6 1 3 1016.6 1016.5 0.0
19/02:30am 22.3 25.0 20.2 88 1.4 ENE 6 7 3 4 1016.7 1016.6 0.0
19/02:00am 23.1 25.7 20.1 83 1.9 E 6 7 3 4 1017.1 1017.0 0.0
19/01:30am 23.4 27.0 19.8 80 2.3 CALM 0 6 0 3 1017.7 1017.6 0.0
19/01:00am 24.1 26.2 20.2 79 2.5 E 9 13 5 7 1017.9 1017.8 0.0
19/12:30am 24.5 26.6 20.2 77 2.8 E 9 15 5 8 1018.1 1018.0 0.0
19/12:00am 24.6 26.8 20.5 78 2.7 E 9 15 5 8 1018.2 1018.1 0.0
 
Date/Time
EST
Temp
°C
App
Temp
°C
Dew
Point
Rel
Hum
%
Delta-T
°C
Wind Press
QNH
hPa
Press
MSL
hPa
Rain
since 9 am
mm
Dir
 
Spd
km/h
Gust
km/h
Spd
kts
Gust
kts
18/11:30pm 24.4 26.6 20.5 79 2.5 E 9 15 5 8 1018.4 1018.3 0.0
18/11:00pm 24.4 26.6 20.5 79 2.5 SE 9 15 5 8 1018.5 1018.4 0.0
18/10:30pm 23.7 26.8 20.2 81 2.3 E 4 7 2 4 1018.6 1018.5 0.0
18/10:00pm 23.9 25.9 20.0 79 2.5 E 9 15 5 8 1018.6 1018.5 0.0
18/09:30pm 24.0 27.0 20.1 79 2.5 ENE 4 13 2 7 1018.6 1018.5 0.0
18/09:00pm 24.0 26.2 20.3 80 2.4 E 9 15 5 8 1018.6 1018.5 0.0
18/08:30pm 23.9 26.4 20.2 80 2.4 E 7 13 4 7 1018.5 1018.4 0.0
18/08:00pm 24.5 27.1 20.4 78 2.7 ESE 7 11 4 6 1018.3 1018.2 0.0
18/07:30pm 24.7 26.9 20.4 77 2.8 ESE 9 17 5 9 1018.1 1018.0 0.0
18/07:00pm 24.8 27.0 20.5 77 2.8 ESE 9 15 5 8 1017.5 1017.4 0.0
18/06:30pm 24.7 26.8 20.2 76 2.9 ESE 9 13 5 7 1017.3 1017.2 0.0
18/06:00pm 25.1 26.9 20.4 75 3.1 E 11 20 6 11 1016.9 1016.8 0.0
18/05:30pm 25.8 26.7 20.1 71 3.7 E 15 26 8 14 1016.8 1016.7 0.0
18/05:00pm 26.4 27.2 19.8 67 4.3 E 15 22 8 12 1016.5 1016.4 0.0
18/04:30pm 27.3 28.0 19.6 62 5.0 E 15 28 8 15 1016.2 1016.1 0.0
18/04:00pm 27.8 28.2 19.8 61 5.2 ENE 17 30 9 16 1016.1 1016.0 0.0
18/03:30pm 27.7 28.2 19.2 60 5.5 E 15 24 8 13 1016.4 1016.3 0.0
18/03:00pm 27.9 27.8 19.9 61 5.2 ENE 20 32 11 17 1016.2 1016.1 0.0
18/02:30pm 28.6 28.6 19.0 56 6.2 E 17 33 9 18 1016.2 1016.1 0.0
18/02:00pm 28.9 29.0 18.4 53 6.7 ENE 15 24 8 13 1016.3 1016.2 0.0
18/01:30pm 28.8 28.3 17.7 51 7.0 NE 17 24 9 13 1016.7 1016.6 0.0
18/01:00pm 28.5 28.2 18.3 54 6.5 ENE 17 24 9 13 1017.2 1017.1 0.0
18/12:30pm 28.2 28.3 18.3 55 6.3 ENE 15 24 8 13 1017.6 1017.5 0.0
18/12:00pm 28.1 29.2 19.6 60 5.5 ENE 13 24 7 13 1018.1 1018.0 0.0
18/11:30am 26.8 26.7 19.9 66 4.5 ENE 20 30 11 16 1018.6 1018.5 0.0
18/11:00am 26.7 27.8 19.6 65 4.6 ENE 13 22 7 12 1018.8 1018.7 0.0
18/10:30am 27.7 28.5 19.8 62 5.2 ENE 15 26 8 14 1019.2 1019.1 0.0
18/10:00am 27.1 28.1 20.2 66 4.5 E 15 22 8 12 1019.2 1019.1 0.0
18/09:30am 27.0 28.2 19.9 65 4.6 E 13 20 7 11 1019.2 1019.1 0.0
18/09:00am 27.0 28.9 20.6 68 4.2 ENE 11 17 6 9 1019.2 1019.1 1.2
18/08:30am 25.5 28.8 21.4 78 2.7 SE 6 11 3 6 1019.1 1019.0 1.2
18/08:00am 23.5 25.7 20.4 83 2.0 SSE 9 13 5 7 1018.8 1018.7 1.2
18/07:30am 22.4 24.8 20.1 87 1.5 SSE 7 11 4 6 1018.6 1018.5 1.2
18/07:00am 21.5 24.0 20.3 93 0.8 S 7 11 4 6 1018.5 1018.4 1.2
18/06:30am 21.1 23.8 20.3 95 0.5 S 6 7 3 4 1018.1 1018.0 1.2
18/06:00am 20.9 24.5 19.7 93 0.8 CALM 0 7 0 4 1017.7 1017.6 1.2
18/05:30am 21.9 24.1 20.4 91 1.0 ESE 9 17 5 9 1017.4 1017.3 1.0
18/05:00am 20.2 23.9 19.9 98 0.2 CALM 0 6 0 3 1017.2 1017.1 1.0
18/04:30am 20.0 23.6 19.7 98 0.2 CALM 0 0 0 0 1017.2 1017.1 1.0
18/04:00am 20.4 24.1 19.9 97 0.3 CALM 0 0 0 0 1017.5 1017.4 1.0
18/03:30am 20.6 24.3 19.9 96 0.4 CALM 0 0 0 0 1017.5 1017.4 1.0
18/03:00am 21.2 24.0 20.4 95 0.5 SW 6 7 3 4 1017.7 1017.6 1.0
18/02:30am 21.6 24.4 20.8 95 0.5 WSW 7 11 4 6 1017.6 1017.5 1.0
18/02:00am 21.6 24.4 20.8 95 0.5 NW 7 9 4 5 1017.8 1017.7 1.0
18/01:30am 21.9 26.1 20.9 94 0.7 CALM 0 0 0 0 1017.9 1017.8 1.0
18/01:00am 22.3 25.5 20.6 90 1.1 SSE 4 9 2 5 1018.0 1017.9 1.0
18/12:30am 22.0 24.8 20.5 91 1.0 SSE 6 7 3 4 1018.4 1018.3 1.0
18/12:00am 22.1 24.7 20.0 88 1.3 SSE 6 7 3 4 1018.5 1018.4 1.0
 
Date/Time
EST
Temp
°C
App
Temp
°C
Dew
Point
Rel
Hum
%
Delta-T
°C
Wind Press
QNH
hPa
Press
MSL
hPa
Rain
since 9 am
mm
Dir
 
Spd
km/h
Gust
km/h
Spd
kts
Gust
kts
17/11:30pm 22.9 25.0 20.2 85 1.7 E 9 15 5 8 1018.7 1018.6 1.0
17/11:00pm 22.8 24.6 20.3 86 1.6 ESE 11 15 6 8 1018.9 1018.8 1.0
17/10:30pm 22.9 25.0 20.2 85 1.7 E 9 17 5 9 1018.8 1018.7 1.0
17/10:00pm 22.9 25.2 19.9 83 1.9 E 7 17 4 9 1019.0 1018.9 1.0
17/09:30pm 22.9 25.1 20.4 86 1.6 E 9 17 5 9 1019.0 1018.9 1.0
17/09:00pm 22.0 25.2 20.6 92 0.9 SE 4 7 2 4 1019.0 1018.9 1.0
17/08:30pm 22.2 24.1 20.5 90 1.1 ESE 11 20 6 11 1019.0 1018.9 1.0
17/08:00pm 23.3 25.8 20.2 83 2.0 ESE 7 15 4 8 1018.8 1018.7 0.2
17/07:30pm 22.8 24.7 19.8 83 1.9 S 9 13 5 7 1018.6 1018.5 0.2
17/07:00pm 24.0 26.2 19.7 77 2.8 ESE 7 13 4 7 1018.1 1018.0 0.2
17/06:30pm 24.0 25.9 19.7 77 2.8 ESE 9 17 5 9 1017.7 1017.6 0.2
17/06:00pm 23.9 25.0 19.6 77 2.8 ESE 13 20 7 11 1017.6 1017.5 0.2
17/05:30pm 23.8 25.7 19.7 78 2.6 ESE 9 17 5 9 1017.4 1017.3 0.2
17/05:00pm 26.0 26.4 18.9 65 4.5 ESE 15 24 8 13 1017.0 1016.9 0.2
17/04:30pm 26.1 25.8 18.2 61 5.0 ESE 17 26 9 14 1016.8 1016.7 0.2
17/04:00pm 26.7 26.6 18.8 62 5.1 ESE 17 30 9 16 1016.8 1016.7 0.2
17/03:30pm 26.2 27.2 18.6 63 4.8 SE 11 19 6 10 1016.9 1016.8 0.2
17/03:00pm 24.3 24.9 19.4 74 3.1 E 15 24 8 13 1017.1 1017.0 0.2
17/02:30pm 25.7 25.2 19.1 67 4.2 ENE 20 43 11 23 1016.9 1016.8 0.2
17/02:00pm 28.9 28.4 17.7 50 7.1 E 17 33 9 18 1016.9 1016.8 0.2
17/01:30pm 27.2 26.6 18.5 59 5.6 ESE 19 39 10 21 1017.3 1017.2 0.2
17/01:00pm 26.8 26.8 18.9 62 5.1 ESE 17 28 9 15 1017.9 1017.8 0.2
17/12:30pm 26.1 24.6 17.7 60 5.3 E 22 39 12 21 1018.6 1018.5 0.2
17/12:00pm 27.7 26.6 17.2 52 6.6 ESE 19 33 10 18 1018.7 1018.6 0.2
17/11:30am 28.3 27.0 16.9 50 7.1 SE 19 30 10 16 1019.2 1019.1 0.2
17/11:00am 27.9 27.2 17.4 52 6.6 E 17 32 9 17 1019.9 1019.8 0.2
17/10:30am 26.9 26.6 18.2 59 5.5 ESE 17 24 9 13 1020.3 1020.2 0.2
17/10:00am 26.8 27.2 18.9 62 5.1 E 15 28 8 15 1020.6 1020.5 0.0
17/09:30am 24.6 25.5 20.1 76 2.9 S 15 22 8 12 1021.1 1021.0 0.0
17/09:00am 23.7 24.5 19.8 79 2.5 SSW 15 19 8 10 1021.0 1020.9 0.6
17/08:30am 23.6 25.7 20.1 81 2.3 S 9 15 5 8 1021.0 1020.9 0.6
17/08:00am 21.8 23.7 19.7 88 1.3 SSW 9 17 5 9 1020.9 1020.8 0.6
17/07:30am 20.9 21.5 19.4 91 1.0 S 15 20 8 11 1020.5 1020.4 0.6
17/07:00am 20.3 22.5 19.6 96 0.4 S 7 11 4 6 1020.1 1020.0 0.6
17/06:30am 20.0 21.7 19.3 96 0.4 S 9 13 5 7 1019.9 1019.8 0.6
17/06:00am 19.8 21.5 19.3 97 0.3 S 9 13 5 7 1019.8 1019.7 0.6
17/05:30am 19.7 22.0 19.4 98 0.2 SSE 6 9 3 5 1019.4 1019.3 0.6
17/05:00am 19.4 21.3 18.9 97 0.3 S 7 11 4 6 1019.1 1019.0 0.6
17/04:30am 19.5 21.5 18.8 96 0.4 SSE 6 7 3 4 1018.9 1018.8 0.6
17/04:00am 19.5 21.4 19.0 97 0.3 SSW 7 11 4 6 1018.9 1018.8 0.6
17/03:30am 19.7 21.2 19.0 96 0.4 S 9 15 5 8 1018.8 1018.7 0.6
17/03:00am 19.7 21.2 19.0 96 0.4 S 9 13 5 7 1018.9 1018.8 0.6
17/02:30am 19.6 21.5 18.9 96 0.4 S 7 13 4 7 1019.2 1019.1 0.6
17/02:00am 19.8 21.4 19.1 96 0.4 S 9 13 5 7 1019.5 1019.4 0.6
17/01:30am 19.9 22.1 19.1 95 0.5 S 6 9 3 5 1019.9 1019.8 0.6
17/01:00am 20.2 23.2 19.2 94 0.6 S 2 6 1 3 1020.5 1020.4 0.6
17/12:30am 20.5 22.7 19.3 93 0.8 S 6 7 3 4 1020.7 1020.6 0.6
17/12:00am 20.7 22.9 19.2 91 0.9 S 6 9 3 5 1020.9 1020.8 0.6
 
Date/Time
EST
Temp
°C
App
Temp
°C
Dew
Point
Rel
Hum
%
Delta-T
°C
Wind Press
QNH
hPa
Press
MSL
hPa
Rain
since 9 am
mm
Dir
 
Spd
km/h
Gust
km/h
Spd
kts
Gust
kts
16/11:30pm 21.4 23.5 19.3 88 1.3 S 7 11 4 6 1021.1 1021.0 0.6
16/11:00pm 21.9 23.5 19.1 84 1.8 S 9 13 5 7 1021.3 1021.2 0.6
16/10:30pm 23.3 24.9 19.2 78 2.6 SE 9 20 5 11 1021.5 1021.4 0.6
16/10:00pm 23.0 25.0 19.2 79 2.4 SE 7 9 4 5 1021.6 1021.5 0.6
16/09:30pm 23.2 25.3 18.9 77 2.7 SE 6 9 3 5 1021.8 1021.7 0.6
16/09:00pm 22.5 24.8 19.5 83 1.9 ENE 6 11 3 6 1021.7 1021.6 0.6
16/08:30pm 21.8 24.8 20.1 90 1.1 SSW 4 6 2 3 1021.6 1021.5 0.6
16/08:00pm 21.9 24.4 19.8 88 1.3 S 6 7 3 4 1021.3 1021.2 0.6
16/07:30pm 21.7 23.7 20.0 90 1.1 S 9 11 5 6 1021.3 1021.2 0.6
16/07:00pm 21.8 23.7 19.7 88 1.3 S 9 13 5 7 1020.9 1020.8 0.6
16/06:30pm 22.1 24.5 20.0 88 1.3 S 7 11 4 6 1020.6 1020.5 0.6
16/06:00pm 22.5 25.3 20.4 88 1.4 SSE 6 9 3 5 1020.4 1020.3 0.6

Other Formats:

Comma delimited format used in spreadsheet applications
http://www.bom.gov.au/fwo/IDQ60801/IDQ60801.95370.axf

JavaScript Object Notation format (JSON) in row-major order
http://www.bom.gov.au/fwo/IDQ60801/IDQ60801.95370.json